createdAt,value
2018-09-20T00:00:41.510Z,0
2018-09-20T00:01:42.899Z,0
2018-09-20T00:02:44.279Z,0
2018-09-20T00:03:45.660Z,0
2018-09-20T00:04:47.062Z,0
2018-09-20T00:05:48.444Z,0
2018-09-20T00:06:49.836Z,0
2018-09-20T00:07:51.214Z,0
2018-09-20T00:08:52.602Z,0
2018-09-20T00:09:53.982Z,0
2018-09-20T00:10:55.378Z,0
2018-09-20T00:11:56.759Z,0
2018-09-20T00:12:58.143Z,0
2018-09-20T00:13:59.530Z,0
2018-09-20T00:15:00.910Z,0
2018-09-20T00:16:02.301Z,0
2018-09-20T00:17:03.688Z,0
2018-09-20T00:18:05.083Z,0
2018-09-20T00:19:06.468Z,0
2018-09-20T00:20:07.849Z,0
2018-09-20T00:21:09.231Z,0
2018-09-20T00:22:10.619Z,0
2018-09-20T00:23:12.009Z,0
2018-09-20T00:24:13.394Z,0
2018-09-20T00:25:14.781Z,0
2018-09-20T00:26:16.166Z,0
2018-09-20T00:27:17.549Z,0
2018-09-20T00:28:18.940Z,0
2018-09-20T00:29:20.320Z,0
2018-09-20T00:30:21.714Z,0
2018-09-20T00:31:23.097Z,0
2018-09-20T00:32:24.485Z,0
2018-09-20T00:33:25.868Z,0
2018-09-20T00:34:27.250Z,0
2018-09-20T00:35:28.630Z,0
2018-09-20T00:36:30.010Z,0
2018-09-20T00:37:31.396Z,0
2018-09-20T00:38:32.782Z,0
2018-09-20T00:39:34.170Z,0
2018-09-20T00:40:35.570Z,0
2018-09-20T00:41:36.936Z,0
2018-09-20T00:42:38.317Z,0
2018-09-20T00:43:39.705Z,0
2018-09-20T00:44:41.098Z,0
2018-09-20T00:45:42.476Z,0
2018-09-20T00:46:43.863Z,0
2018-09-20T00:47:45.246Z,0
2018-09-20T00:48:46.632Z,0
2018-09-20T00:49:48.016Z,0
2018-09-20T00:50:49.397Z,0
2018-09-20T00:51:50.790Z,0
2018-09-20T00:52:52.167Z,0
2018-09-20T00:53:53.555Z,0
2018-09-20T00:54:54.949Z,0
2018-09-20T00:55:56.329Z,0
2018-09-20T00:56:57.719Z,0
2018-09-20T00:57:59.104Z,0
2018-09-20T00:59:00.487Z,0
2018-09-20T01:00:01.875Z,0
2018-09-20T01:01:03.262Z,0
2018-09-20T01:02:04.646Z,0
2018-09-20T01:03:06.041Z,0
2018-09-20T01:04:07.427Z,0
2018-09-20T01:05:08.804Z,0
2018-09-20T01:06:10.182Z,0
2018-09-20T01:07:11.568Z,0
2018-09-20T01:08:12.970Z,0
2018-09-20T01:09:14.343Z,0
2018-09-20T01:10:15.732Z,0
2018-09-20T01:11:17.125Z,0
2018-09-20T01:12:18.510Z,0
2018-09-20T01:13:19.896Z,0
2018-09-20T01:14:21.284Z,0
2018-09-20T01:15:22.660Z,0
2018-09-20T01:16:24.059Z,0
2018-09-20T01:17:25.437Z,0
2018-09-20T01:18:26.825Z,0
2018-09-20T01:19:28.212Z,0
2018-09-20T01:20:29.592Z,0
2018-09-20T01:21:30.977Z,0
2018-09-20T01:22:32.355Z,0
2018-09-20T01:23:33.748Z,0
2018-09-20T01:24:35.139Z,0
2018-09-20T01:25:36.519Z,0
2018-09-20T01:26:37.915Z,0
2018-09-20T01:27:39.303Z,0
2018-09-20T01:28:40.680Z,0
2018-09-20T01:29:42.069Z,0
2018-09-20T01:30:43.477Z,0
2018-09-20T01:31:44.852Z,0
2018-09-20T01:32:46.226Z,0
2018-09-20T01:33:47.618Z,0
2018-09-20T01:34:49.008Z,0
2018-09-20T01:35:50.394Z,0
2018-09-20T01:36:51.784Z,0
2018-09-20T01:37:53.168Z,0
2018-09-20T01:38:54.546Z,0
2018-09-20T01:39:55.936Z,0
2018-09-20T01:40:57.325Z,0
2018-09-20T01:41:58.713Z,0
2018-09-20T01:43:00.092Z,0
2018-09-20T01:44:01.473Z,0
2018-09-20T01:45:02.871Z,0
2018-09-20T01:46:04.249Z,0
2018-09-20T01:47:05.639Z,0
2018-09-20T01:48:07.026Z,0
2018-09-20T01:49:08.411Z,0
2018-09-20T01:50:09.797Z,0
2018-09-20T01:51:11.181Z,0
2018-09-20T01:52:12.569Z,0
2018-09-20T01:53:13.952Z,0
2018-09-20T01:54:15.335Z,0
2018-09-20T01:55:16.721Z,0
2018-09-20T01:56:18.106Z,0
2018-09-20T01:57:19.493Z,0
2018-09-20T01:58:20.890Z,0
2018-09-20T01:59:22.268Z,0
2018-09-20T02:00:23.653Z,0
2018-09-20T02:01:25.040Z,0
2018-09-20T02:02:26.432Z,0
2018-09-20T02:03:27.810Z,0
2018-09-20T02:04:29.198Z,0
2018-09-20T02:05:30.585Z,0
2018-09-20T02:06:31.970Z,0
2018-09-20T02:07:33.349Z,0
2018-09-20T02:08:34.740Z,0
2018-09-20T02:09:36.129Z,0
2018-09-20T02:10:37.512Z,0
2018-09-20T02:11:38.895Z,0
2018-09-20T02:12:40.285Z,0
2018-09-20T02:13:41.677Z,0
2018-09-20T02:14:43.067Z,0
2018-09-20T02:15:44.449Z,0
2018-09-20T02:16:45.833Z,0
2018-09-20T02:17:47.216Z,0
2018-09-20T02:18:48.610Z,0
2018-09-20T02:19:49.997Z,0
2018-09-20T02:20:51.377Z,0
2018-09-20T02:21:52.761Z,0
2018-09-20T02:22:54.144Z,0
2018-09-20T02:23:55.533Z,0
2018-09-20T02:24:56.914Z,0
2018-09-20T02:25:58.308Z,0
2018-09-20T02:26:59.693Z,0
2018-09-20T02:28:01.076Z,0
2018-09-20T02:29:02.460Z,0
2018-09-20T02:30:03.844Z,0
2018-09-20T02:31:05.226Z,0
2018-09-20T02:32:06.614Z,0
2018-09-20T02:33:07.998Z,0
2018-09-20T02:34:09.392Z,0
2018-09-20T02:35:10.765Z,0
2018-09-20T02:36:12.153Z,0
2018-09-20T02:37:13.540Z,0
2018-09-20T02:38:14.928Z,0
2018-09-20T02:39:16.313Z,0
2018-09-20T02:40:17.701Z,0
2018-09-20T02:41:19.089Z,0
2018-09-20T02:42:20.472Z,0
2018-09-20T02:43:21.861Z,0
2018-09-20T02:44:23.232Z,0
2018-09-20T02:45:24.621Z,0
2018-09-20T02:46:26.012Z,0
2018-09-20T02:47:27.392Z,0
2018-09-20T02:48:28.784Z,0
2018-09-20T02:49:30.162Z,0
2018-09-20T02:50:31.556Z,0
2018-09-20T02:51:32.941Z,0
2018-09-20T02:52:34.321Z,0
2018-09-20T02:53:35.708Z,0
2018-09-20T02:54:37.090Z,0
2018-09-20T02:55:38.477Z,0
2018-09-20T02:56:40.510Z,0
2018-09-20T02:57:41.897Z,0
2018-09-20T02:58:43.268Z,0
2018-09-20T02:59:44.654Z,0
2018-09-20T03:00:46.046Z,0
2018-09-20T03:01:47.433Z,0
2018-09-20T03:02:48.823Z,0
2018-09-20T03:03:50.207Z,0
2018-09-20T03:04:51.592Z,0
2018-09-20T03:05:52.986Z,0
2018-09-20T03:06:54.370Z,0
2018-09-20T03:07:55.756Z,0
2018-09-20T03:08:57.144Z,0
2018-09-20T03:09:58.545Z,0
2018-09-20T03:10:59.921Z,0
2018-09-20T03:12:01.318Z,0
2018-09-20T03:13:02.701Z,0
2018-09-20T03:14:04.090Z,0
2018-09-20T03:15:05.477Z,0
2018-09-20T03:16:06.857Z,0
2018-09-20T03:17:08.243Z,0
2018-09-20T03:18:09.627Z,0
2018-09-20T03:19:11.011Z,0
2018-09-20T03:20:12.389Z,0
2018-09-20T03:21:13.784Z,0
2018-09-20T03:22:15.165Z,0
2018-09-20T03:23:16.535Z,0
2018-09-20T03:24:17.932Z,0
2018-09-20T03:25:19.308Z,0
2018-09-20T03:26:20.693Z,0
2018-09-20T03:27:22.078Z,0
2018-09-20T03:28:23.457Z,0
2018-09-20T03:29:24.842Z,0
2018-09-20T03:30:26.257Z,0
2018-09-20T03:31:27.617Z,0
2018-09-20T03:32:29.004Z,0
2018-09-20T03:33:31.144Z,0
2018-09-20T03:34:32.533Z,0
2018-09-20T03:35:33.927Z,0
2018-09-20T03:36:35.304Z,0
2018-09-20T03:37:36.692Z,0
2018-09-20T03:38:38.078Z,0
2018-09-20T03:39:39.462Z,0
2018-09-20T03:40:40.845Z,0
2018-09-20T03:41:42.225Z,0
2018-09-20T03:42:43.611Z,0
2018-09-20T03:43:44.989Z,0
2018-09-20T03:44:46.371Z,0
2018-09-20T03:45:47.764Z,0
2018-09-20T03:46:49.136Z,0
2018-09-20T03:47:50.520Z,0
2018-09-20T03:48:51.909Z,0
2018-09-20T03:49:53.288Z,0
2018-09-20T03:50:54.676Z,0
2018-09-20T03:51:56.055Z,0
2018-09-20T03:52:57.445Z,0
2018-09-20T03:53:58.826Z,0
2018-09-20T03:55:00.220Z,0
2018-09-20T03:56:01.599Z,0
2018-09-20T03:57:02.987Z,0
2018-09-20T03:58:04.372Z,0
2018-09-20T03:59:05.758Z,0
2018-09-20T04:00:07.141Z,0
2018-09-20T04:01:08.528Z,0
2018-09-20T04:02:09.912Z,0
2018-09-20T04:03:11.290Z,0
2018-09-20T04:04:12.670Z,0
2018-09-20T04:05:14.058Z,0
2018-09-20T04:06:15.443Z,0
2018-09-20T04:07:16.826Z,0
2018-09-20T04:08:18.211Z,0
2018-09-20T04:09:19.599Z,0
2018-09-20T04:10:20.975Z,0
2018-09-20T04:11:22.373Z,0
2018-09-20T04:12:23.764Z,0
2018-09-20T04:13:25.143Z,0
2018-09-20T04:14:26.533Z,0
2018-09-20T04:15:27.919Z,0
2018-09-20T04:16:29.314Z,0
2018-09-20T04:17:30.683Z,0
2018-09-20T04:18:32.074Z,0
2018-09-20T04:19:33.457Z,0
2018-09-20T04:20:34.850Z,0
2018-09-20T04:21:36.226Z,0
2018-09-20T04:22:37.608Z,0
2018-09-20T04:23:38.990Z,4
2018-09-20T04:24:40.380Z,4
2018-09-20T04:25:41.766Z,0
2018-09-20T04:26:43.156Z,0
2018-09-20T04:27:44.542Z,4
2018-09-20T04:28:45.917Z,4
2018-09-20T04:29:47.302Z,0
2018-09-20T04:30:48.695Z,4
2018-09-20T04:31:50.113Z,4
2018-09-20T04:32:51.461Z,4
2018-09-20T04:33:52.849Z,4
2018-09-20T04:34:54.229Z,4
2018-09-20T04:35:55.613Z,8
2018-09-20T04:36:57.002Z,8
2018-09-20T04:37:58.383Z,12
2018-09-20T04:38:59.769Z,12
2018-09-20T04:40:01.157Z,12
2018-09-20T04:41:02.553Z,12
2018-09-20T04:42:03.930Z,16
2018-09-20T04:43:05.322Z,20
2018-09-20T04:44:06.703Z,20
2018-09-20T04:45:08.092Z,24
2018-09-20T04:46:09.476Z,28
2018-09-20T04:47:10.867Z,28
2018-09-20T04:48:12.256Z,28
2018-09-20T04:49:13.639Z,28
2018-09-20T04:50:15.021Z,32
2018-09-20T04:51:16.402Z,32
2018-09-20T04:52:17.794Z,36
2018-09-20T04:53:19.222Z,40
2018-09-20T04:54:20.569Z,44
2018-09-20T04:55:21.964Z,48
2018-09-20T04:56:23.345Z,52
2018-09-20T04:57:24.732Z,60
2018-09-20T04:58:26.115Z,60
2018-09-20T04:59:27.500Z,68
2018-09-20T05:00:29.729Z,72
2018-09-20T05:01:31.117Z,80
2018-09-20T05:02:32.511Z,88
2018-09-20T05:03:33.894Z,96
2018-09-20T05:04:35.278Z,108
2018-09-20T05:05:36.671Z,108
2018-09-20T05:06:38.062Z,112
2018-09-20T05:07:39.440Z,124
2018-09-20T05:08:40.835Z,132
2018-09-20T05:09:42.227Z,144
2018-09-20T05:10:43.621Z,160
2018-09-20T05:11:45.006Z,168
2018-09-20T05:12:46.412Z,184
2018-09-20T05:13:47.795Z,188
2018-09-20T05:14:49.180Z,192
2018-09-20T05:15:50.565Z,196
2018-09-20T05:16:51.966Z,204
2018-09-20T05:17:53.348Z,212
2018-09-20T05:18:54.737Z,208
2018-09-20T05:19:56.134Z,208
2018-09-20T05:20:57.512Z,216
2018-09-20T05:21:58.903Z,216
2018-09-20T05:23:00.292Z,220
2018-09-20T05:24:01.695Z,224
2018-09-20T05:25:03.080Z,236
2018-09-20T05:26:04.468Z,236
2018-09-20T05:27:05.853Z,248
2018-09-20T05:28:07.290Z,256
2018-09-20T05:29:08.633Z,268
2018-09-20T05:30:10.019Z,280
2018-09-20T05:31:11.407Z,308
2018-09-20T05:32:12.787Z,344
2018-09-20T05:33:14.217Z,356
2018-09-20T05:34:15.572Z,348
2018-09-20T05:35:16.961Z,384
2018-09-20T05:36:18.353Z,388
2018-09-20T05:37:19.747Z,388
2018-09-20T05:38:21.136Z,336
2018-09-20T05:39:22.527Z,348
2018-09-20T05:40:23.921Z,348
2018-09-20T05:41:25.301Z,340
2018-09-20T05:42:26.691Z,324
2018-09-20T05:43:28.120Z,328
2018-09-20T05:44:29.462Z,204
2018-09-20T05:45:30.850Z,368
2018-09-20T05:46:32.240Z,360
2018-09-20T05:47:33.632Z,356
2018-09-20T05:48:35.023Z,352
2018-09-20T05:49:36.412Z,340
2018-09-20T05:50:37.806Z,328
2018-09-20T05:51:39.198Z,324
2018-09-20T05:52:40.576Z,324
2018-09-20T05:53:41.975Z,328
2018-09-20T05:54:43.365Z,336
2018-09-20T05:55:44.775Z,344
2018-09-20T05:56:46.168Z,356
2018-09-20T05:57:47.552Z,372
2018-09-20T05:58:48.936Z,380
2018-09-20T05:59:50.326Z,388
2018-09-20T06:00:51.713Z,400
2018-09-20T06:01:53.105Z,420
2018-09-20T06:02:54.500Z,452
2018-09-20T06:03:55.879Z,476
2018-09-20T06:04:57.262Z,508
2018-09-20T06:05:58.692Z,564
2018-09-20T06:06:59.999Z,580
2018-09-20T06:08:01.396Z,664
2018-09-20T06:09:02.781Z,664
2018-09-20T06:10:04.175Z,680
2018-09-20T06:11:05.569Z,644
2018-09-20T06:12:06.962Z,600
2018-09-20T06:13:08.392Z,572
2018-09-20T06:14:09.743Z,576
2018-09-20T06:15:11.138Z,564
2018-09-20T06:16:12.524Z,576
2018-09-20T06:17:13.920Z,588
2018-09-20T06:18:15.303Z,584
2018-09-20T06:19:16.693Z,616
2018-09-20T06:20:18.076Z,708
2018-09-20T06:21:19.468Z,756
2018-09-20T06:22:20.846Z,784
2018-09-20T06:23:22.240Z,816
2018-09-20T06:24:23.631Z,940
2018-09-20T06:25:25.023Z,1116
2018-09-20T06:26:26.415Z,1212
2018-09-20T06:27:27.811Z,1176
2018-09-20T06:28:29.203Z,1232
2018-09-20T06:29:30.579Z,1292
2018-09-20T06:30:31.968Z,1416
2018-09-20T06:31:33.357Z,1408
2018-09-20T06:32:34.742Z,1444
2018-09-20T06:33:36.141Z,1420
2018-09-20T06:34:37.525Z,1544
2018-09-20T06:35:38.906Z,1596
2018-09-20T06:36:40.302Z,1524
2018-09-20T06:37:41.697Z,1576
2018-09-20T06:38:43.088Z,1416
2018-09-20T06:39:45.285Z,1404
2018-09-20T06:40:46.680Z,1544
2018-09-20T06:41:48.069Z,1472
2018-09-20T06:42:49.460Z,1512
2018-09-20T06:43:50.846Z,1744
2018-09-20T06:44:52.230Z,1524
2018-09-20T06:45:53.624Z,1788
2018-09-20T06:46:55.013Z,1968
2018-09-20T06:47:56.418Z,1960
2018-09-20T06:48:57.802Z,2252
2018-09-20T06:49:59.208Z,2388
2018-09-20T06:51:00.592Z,2164
2018-09-20T06:52:01.985Z,2484
2018-09-20T06:53:03.367Z,2456
2018-09-20T06:54:04.762Z,2424
2018-09-20T06:55:06.159Z,2284
2018-09-20T06:56:07.540Z,2340
2018-09-20T06:57:08.926Z,2188
2018-09-20T06:58:10.323Z,2200
2018-09-20T06:59:11.721Z,2208
2018-09-20T07:00:13.112Z,2128
2018-09-20T07:01:14.503Z,2072
2018-09-20T07:02:15.898Z,2048
2018-09-20T07:03:17.367Z,2040
2018-09-20T07:04:18.642Z,2016
2018-09-20T07:05:20.030Z,2004
2018-09-20T07:06:21.424Z,1980
2018-09-20T07:07:22.818Z,1996
2018-09-20T07:08:24.208Z,2020
2018-09-20T07:09:25.600Z,2016
2018-09-20T07:10:26.990Z,1964
2018-09-20T07:11:28.385Z,1668
2018-09-20T07:12:29.762Z,1452
2018-09-20T07:13:31.763Z,1584
2018-09-20T07:14:33.143Z,1900
2018-09-20T07:15:34.526Z,1860
2018-09-20T07:16:35.924Z,1972
2018-09-20T07:17:37.317Z,1988
2018-09-20T07:18:38.717Z,1976
2018-09-20T07:19:40.103Z,1944
2018-09-20T07:20:41.496Z,1912
2018-09-20T07:21:42.894Z,1788
2018-09-20T07:22:44.282Z,1836
2018-09-20T07:23:45.675Z,1692
2018-09-20T07:24:47.059Z,1772
2018-09-20T07:25:48.456Z,1988
2018-09-20T07:26:49.851Z,2112
2018-09-20T07:27:51.249Z,2224
2018-09-20T07:28:52.642Z,2232
2018-09-20T07:29:54.042Z,2056
2018-09-20T07:30:55.442Z,2036
2018-09-20T07:31:56.840Z,2144
2018-09-20T07:32:58.229Z,2284
2018-09-20T07:33:59.625Z,2084
2018-09-20T07:35:01.012Z,1972
2018-09-20T07:36:02.398Z,1716
2018-09-20T07:37:03.786Z,1776
2018-09-20T07:38:05.186Z,1872
2018-09-20T07:39:06.564Z,1780
2018-09-20T07:40:07.958Z,1912
2018-09-20T07:41:09.344Z,1820
2018-09-20T07:42:10.735Z,1744
2018-09-20T07:43:12.123Z,1700
2018-09-20T07:44:13.513Z,1708
2018-09-20T07:45:14.908Z,1680
2018-09-20T07:46:16.307Z,1600
2018-09-20T07:47:17.697Z,1616
2018-09-20T07:48:19.093Z,1500
2018-09-20T07:49:20.495Z,1532
2018-09-20T07:50:21.882Z,1804
2018-09-20T07:51:23.280Z,1524
2018-09-20T07:52:24.675Z,1904
2018-09-20T07:53:26.063Z,1952
2018-09-20T07:54:27.465Z,1968
2018-09-20T07:55:28.854Z,1976
2018-09-20T07:56:30.286Z,1932
2018-09-20T07:57:31.651Z,1884
2018-09-20T07:58:33.030Z,1896
2018-09-20T07:59:34.424Z,1876
2018-09-20T08:00:35.821Z,1860
2018-09-20T08:01:37.248Z,1448
2018-09-20T08:02:38.566Z,1784
2018-09-20T08:03:39.958Z,1832
2018-09-20T08:04:41.352Z,1816
2018-09-20T08:05:42.744Z,1648
2018-09-20T08:06:44.136Z,1708
2018-09-20T08:07:45.532Z,1844
2018-09-20T08:08:46.914Z,1908
2018-09-20T08:09:48.310Z,1992
2018-09-20T08:10:49.712Z,2064
2018-09-20T08:11:51.102Z,1932
2018-09-20T08:12:52.504Z,1812
2018-09-20T08:13:54.694Z,1980
2018-09-20T08:14:56.079Z,1916
2018-09-20T08:15:57.479Z,1940
2018-09-20T08:16:58.880Z,1952
2018-09-20T08:18:00.273Z,1932
2018-09-20T08:19:01.675Z,2004
2018-09-20T08:20:03.060Z,1920
2018-09-20T08:21:04.451Z,2016
2018-09-20T08:22:05.849Z,1820
2018-09-20T08:23:07.249Z,1912
2018-09-20T08:24:08.633Z,1988
2018-09-20T08:25:10.037Z,1872
2018-09-20T08:26:11.429Z,1980
2018-09-20T08:27:12.814Z,1848
2018-09-20T08:28:14.208Z,1944
2018-09-20T08:29:15.606Z,1892
2018-09-20T08:30:17.008Z,1800
2018-09-20T08:31:18.397Z,1988
2018-09-20T08:32:19.795Z,1832
2018-09-20T08:33:21.197Z,1848
2018-09-20T08:34:22.586Z,1948
2018-09-20T08:35:23.974Z,1928
2018-09-20T08:36:25.395Z,1936
2018-09-20T08:37:26.775Z,1764
2018-09-20T08:38:28.166Z,2048
2018-09-20T08:39:29.572Z,2040
2018-09-20T08:40:30.965Z,2064
2018-09-20T08:41:32.350Z,2076
2018-09-20T08:42:33.746Z,2056
2018-09-20T08:43:35.144Z,2112
2018-09-20T08:44:36.537Z,2128
2018-09-20T08:45:37.936Z,2096
2018-09-20T08:46:39.334Z,2084
2018-09-20T08:47:40.733Z,2144
2018-09-20T08:48:42.120Z,2084
2018-09-20T08:49:43.518Z,2004
2018-09-20T08:50:44.917Z,2092
2018-09-20T08:51:46.301Z,2096
2018-09-20T08:52:47.701Z,2064
2018-09-20T08:53:49.112Z,2028
2018-09-20T08:54:50.503Z,2088
2018-09-20T08:55:51.895Z,2156
2018-09-20T08:56:53.359Z,2136
2018-09-20T08:57:54.639Z,2172
2018-09-20T08:58:56.033Z,2280
2018-09-20T08:59:57.430Z,2408
2018-09-20T09:00:58.840Z,2532
2018-09-20T09:02:00.232Z,2312
2018-09-20T09:03:01.629Z,2824
2018-09-20T09:04:03.015Z,2916
2018-09-20T09:05:04.422Z,2936
2018-09-20T09:06:05.827Z,3252
2018-09-20T09:07:07.210Z,2556
2018-09-20T09:08:08.605Z,1612
2018-09-20T09:09:09.996Z,1564
2018-09-20T09:10:11.392Z,3004
2018-09-20T09:11:12.789Z,42272
2018-09-20T09:12:14.186Z,2884
2018-09-20T09:13:15.578Z,2728
2018-09-20T09:14:16.991Z,2696
2018-09-20T09:15:18.382Z,2712
2018-09-20T09:16:19.781Z,2736
2018-09-20T09:17:21.177Z,2136
2018-09-20T09:18:22.575Z,2856
2018-09-20T09:19:23.972Z,2520
2018-09-20T09:20:25.365Z,2580
2018-09-20T09:21:26.767Z,2724
2018-09-20T09:22:28.711Z,2580
2018-09-20T09:23:30.101Z,2544
2018-09-20T09:24:32.050Z,2568
2018-09-20T09:25:34.272Z,2500
2018-09-20T09:26:35.669Z,2480
2018-09-20T09:27:37.065Z,2508
2018-09-20T09:28:38.500Z,2464
2018-09-20T09:29:39.820Z,2492
2018-09-20T09:30:41.222Z,2560
2018-09-20T09:31:42.625Z,2528
2018-09-20T09:32:44.017Z,2496
2018-09-20T09:33:45.414Z,2504
2018-09-20T09:34:46.818Z,2492
2018-09-20T09:35:48.224Z,2436
2018-09-20T09:36:49.623Z,2456
2018-09-20T09:37:51.012Z,2508
2018-09-20T09:38:52.414Z,2516
2018-09-20T09:39:54.582Z,2524
2018-09-20T09:40:55.984Z,2552
2018-09-20T09:41:57.377Z,2560
2018-09-20T09:42:58.775Z,2532
2018-09-20T09:44:00.174Z,2528
2018-09-20T09:45:01.574Z,2484
2018-09-20T09:46:02.981Z,2616
2018-09-20T09:47:04.375Z,2584
2018-09-20T09:48:05.802Z,2736
2018-09-20T09:49:07.183Z,2632
2018-09-20T09:50:08.584Z,2632
2018-09-20T09:51:09.985Z,2660
2018-09-20T09:52:11.384Z,2668
2018-09-20T09:53:12.785Z,2668
2018-09-20T09:54:14.199Z,2760
2018-09-20T09:55:15.575Z,2704
2018-09-20T09:56:16.974Z,1844
2018-09-20T09:57:18.375Z,1720
2018-09-20T09:58:19.778Z,1708
2018-09-20T09:59:21.183Z,2708
2018-09-20T10:00:22.574Z,2668
2018-09-20T10:01:23.972Z,3236
2018-09-20T10:02:25.422Z,3152
2018-09-20T10:03:26.766Z,2884
2018-09-20T10:04:28.166Z,2848
2018-09-20T10:05:29.560Z,2744
2018-09-20T10:06:30.974Z,2720
2018-09-20T10:07:32.373Z,2712
2018-09-20T10:08:33.771Z,1196
2018-09-20T10:09:35.170Z,1552
2018-09-20T10:10:36.566Z,1872
2018-09-20T10:11:37.972Z,2864
2018-09-20T10:12:39.367Z,2812
2018-09-20T10:13:40.785Z,2740
2018-09-20T10:14:43.098Z,2612
2018-09-20T10:15:44.492Z,2140
2018-09-20T10:16:45.897Z,2892
2018-09-20T10:17:47.290Z,2296
2018-09-20T10:18:48.681Z,1732
2018-09-20T10:19:50.090Z,1736
2018-09-20T10:20:51.478Z,1576
2018-09-20T10:21:52.874Z,2476
2018-09-20T10:22:54.264Z,2356
2018-09-20T10:23:55.718Z,1664
2018-09-20T10:24:57.058Z,1684
2018-09-20T10:25:58.457Z,2484
2018-09-20T10:26:59.860Z,1972
2018-09-20T10:28:01.268Z,1608
2018-09-20T10:29:02.656Z,1788
2018-09-20T10:30:04.042Z,2700
2018-09-20T10:31:05.439Z,2296
2018-09-20T10:32:06.841Z,2180
2018-09-20T10:33:08.240Z,1832
2018-09-20T10:34:09.705Z,1684
2018-09-20T10:35:10.983Z,1576
2018-09-20T10:36:12.379Z,2556
2018-09-20T10:37:13.783Z,2444
2018-09-20T10:38:15.171Z,1864
2018-09-20T10:39:16.581Z,2580
2018-09-20T10:40:17.984Z,1904
2018-09-20T10:41:19.371Z,1484
2018-09-20T10:42:20.784Z,1612
2018-09-20T10:43:22.175Z,2728
2018-09-20T10:44:23.572Z,1592
2018-09-20T10:45:24.976Z,1508
2018-09-20T10:46:26.366Z,1924
2018-09-20T10:47:27.767Z,2312
2018-09-20T10:48:29.169Z,2576
2018-09-20T10:49:30.574Z,2620
2018-09-20T10:50:31.972Z,2696
2018-09-20T10:51:33.359Z,1732
2018-09-20T10:52:34.755Z,1400
2018-09-20T10:53:36.158Z,1412
2018-09-20T10:54:37.634Z,1488
2018-09-20T10:55:38.985Z,1724
2018-09-20T10:56:40.351Z,2164
2018-09-20T10:57:41.742Z,1724
2018-09-20T10:58:43.147Z,1788
2018-09-20T10:59:44.545Z,2544
2018-09-20T11:00:45.945Z,1996
2018-09-20T11:01:47.341Z,1916
2018-09-20T11:02:48.746Z,1860
2018-09-20T11:03:50.137Z,2484
2018-09-20T11:04:51.534Z,2836
2018-09-20T11:05:52.936Z,2600
2018-09-20T11:06:54.356Z,1204
2018-09-20T11:07:55.743Z,1568
2018-09-20T11:08:57.146Z,2892
2018-09-20T11:09:58.539Z,1720
2018-09-20T11:10:59.980Z,1652
2018-09-20T11:12:01.276Z,1956
2018-09-20T11:13:02.680Z,1608
2018-09-20T11:14:04.080Z,2040
2018-09-20T11:15:05.478Z,2132
2018-09-20T11:16:06.874Z,2048
2018-09-20T11:17:08.279Z,3040
2018-09-20T11:18:09.668Z,2100
2018-09-20T11:19:11.066Z,2828
2018-09-20T11:20:12.465Z,2956
2018-09-20T11:21:13.862Z,2904
2018-09-20T11:22:15.262Z,2372
2018-09-20T11:23:16.662Z,2172
2018-09-20T11:24:18.068Z,3016
2018-09-20T11:25:19.480Z,2968
2018-09-20T11:26:20.869Z,1616
2018-09-20T11:27:22.999Z,1556
2018-09-20T11:28:24.405Z,2268
2018-09-20T11:29:25.814Z,2904
2018-09-20T11:30:27.205Z,2792
2018-09-20T11:31:28.612Z,2932
2018-09-20T11:32:30.016Z,2460
2018-09-20T11:33:31.403Z,2320
2018-09-20T11:34:32.803Z,2516
2018-09-20T11:35:34.208Z,3784
2018-09-20T11:36:35.606Z,2760
2018-09-20T11:37:36.997Z,1440
2018-09-20T11:38:38.400Z,1148
2018-09-20T11:39:39.793Z,2584
2018-09-20T11:40:41.197Z,2872
2018-09-20T11:41:42.603Z,2196
2018-09-20T11:42:44.006Z,2076
2018-09-20T11:43:45.404Z,2664
2018-09-20T11:44:46.798Z,2908
2018-09-20T11:45:48.203Z,3152
2018-09-20T11:46:49.600Z,2976
2018-09-20T11:47:50.995Z,1604
2018-09-20T11:48:52.393Z,1624
2018-09-20T11:49:53.788Z,2724
2018-09-20T11:50:55.197Z,2396
2018-09-20T11:51:56.598Z,1408
2018-09-20T11:52:58.000Z,2108
2018-09-20T11:53:59.404Z,1964
2018-09-20T11:55:00.811Z,1436
2018-09-20T11:56:02.213Z,2316
2018-09-20T11:57:03.615Z,2584
2018-09-20T11:58:05.007Z,2540
2018-09-20T11:59:06.396Z,1788
2018-09-20T12:00:07.795Z,2580
2018-09-20T12:01:09.234Z,1744
2018-09-20T12:02:10.616Z,3056
2018-09-20T12:03:12.003Z,2848
2018-09-20T12:04:13.396Z,2764
2018-09-20T12:05:14.799Z,1516
2018-09-20T12:06:16.193Z,1488
2018-09-20T12:07:17.602Z,2376
2018-09-20T12:08:18.996Z,2564
2018-09-20T12:09:20.394Z,3036
2018-09-20T12:10:21.787Z,2768
2018-09-20T12:11:23.191Z,1524
2018-09-20T12:12:24.595Z,2856
2018-09-20T12:13:26.004Z,2968
2018-09-20T12:14:27.486Z,2696
2018-09-20T12:15:28.794Z,2008
2018-09-20T12:16:30.191Z,2324
2018-09-20T12:17:31.590Z,2664
2018-09-20T12:18:33.000Z,2892
2018-09-20T12:19:34.393Z,2348
2018-09-20T12:20:35.796Z,2048
2018-09-20T12:21:37.188Z,1892
2018-09-20T12:22:38.587Z,3496
2018-09-20T12:23:39.982Z,3072
2018-09-20T12:24:41.378Z,1760
2018-09-20T12:25:42.783Z,1812
2018-09-20T12:26:44.175Z,1716
2018-09-20T12:27:45.564Z,1296
2018-09-20T12:28:46.965Z,1648
2018-09-20T12:29:48.360Z,1920
2018-09-20T12:30:49.757Z,3496
2018-09-20T12:31:51.198Z,3288
2018-09-20T12:32:52.615Z,10980
2018-09-20T12:33:53.958Z,29824
2018-09-20T12:34:55.355Z,42720
2018-09-20T12:35:56.766Z,47712
2018-09-20T12:36:58.147Z,48896
2018-09-20T12:37:59.557Z,51744
2018-09-20T12:39:00.938Z,49088
2018-09-20T12:40:02.334Z,45472
2018-09-20T12:41:03.737Z,44800
2018-09-20T12:42:05.137Z,41280
2018-09-20T12:43:06.567Z,15360
2018-09-20T12:44:07.945Z,2352
2018-09-20T12:45:09.344Z,1736
2018-09-20T12:46:10.733Z,4516
2018-09-20T12:47:12.126Z,2064
2018-09-20T12:48:13.550Z,2320
2018-09-20T12:49:14.924Z,2136
2018-09-20T12:50:16.323Z,1924
2018-09-20T12:51:17.719Z,1996
2018-09-20T12:52:19.123Z,1932
2018-09-20T12:53:20.530Z,1920
2018-09-20T12:54:21.922Z,6596
2018-09-20T12:55:23.320Z,32320
2018-09-20T12:56:24.716Z,43136
2018-09-20T12:57:26.113Z,25184
2018-09-20T12:58:27.506Z,12372
2018-09-20T12:59:28.907Z,28480
2018-09-20T13:00:30.311Z,35520
2018-09-20T13:01:31.753Z,34208
2018-09-20T13:02:33.107Z,22176
2018-09-20T13:03:34.511Z,17184
2018-09-20T13:04:35.907Z,1544
2018-09-20T13:05:37.303Z,5672
2018-09-20T13:06:38.697Z,7248
2018-09-20T13:07:40.100Z,1280
2018-09-20T13:08:41.501Z,1216
2018-09-20T13:09:42.894Z,2120
2018-09-20T13:10:44.295Z,1648
2018-09-20T13:11:45.686Z,1636
2018-09-20T13:12:47.082Z,1632
2018-09-20T13:13:48.478Z,1564
2018-09-20T13:14:49.876Z,1332
2018-09-20T13:15:51.280Z,1380
2018-09-20T13:16:52.672Z,1256
2018-09-20T13:17:54.134Z,1216
2018-09-20T13:18:55.481Z,1252
2018-09-20T13:19:56.897Z,1152
2018-09-20T13:20:58.266Z,832
2018-09-20T13:21:59.676Z,1032
2018-09-20T13:23:01.064Z,1156
2018-09-20T13:24:02.458Z,1128
2018-09-20T13:25:03.865Z,1196
2018-09-20T13:26:05.265Z,1196
2018-09-20T13:27:06.679Z,852
2018-09-20T13:28:08.075Z,764
2018-09-20T13:29:09.477Z,752
2018-09-20T13:30:10.877Z,832
2018-09-20T13:31:12.271Z,916
2018-09-20T13:32:13.668Z,1136
2018-09-20T13:33:15.059Z,1144
2018-09-20T13:34:16.449Z,1192
2018-09-20T13:35:17.846Z,1096
2018-09-20T13:36:19.240Z,1008
2018-09-20T13:37:20.720Z,1040
2018-09-20T13:38:22.053Z,1116
2018-09-20T13:39:23.407Z,1132
2018-09-20T13:40:24.809Z,1144
2018-09-20T13:41:26.161Z,1140
2018-09-20T13:42:27.508Z,988
2018-09-20T13:43:28.952Z,956
2018-09-20T13:44:30.298Z,948
2018-09-20T13:45:31.698Z,996
2018-09-20T13:46:33.096Z,940
2018-09-20T13:47:34.488Z,968
2018-09-20T13:48:35.882Z,816
2018-09-20T13:49:37.234Z,808
2018-09-20T13:50:38.634Z,924
2018-09-20T13:51:40.036Z,892
2018-09-20T13:52:41.386Z,824
2018-09-20T13:53:42.771Z,748
2018-09-20T13:54:44.123Z,700
2018-09-20T13:55:45.510Z,736
2018-09-20T13:56:46.899Z,784
2018-09-20T13:57:48.297Z,800
2018-09-20T13:58:49.685Z,784
2018-09-20T13:59:51.072Z,748
2018-09-20T14:00:52.471Z,700
2018-09-20T14:01:53.854Z,760
2018-09-20T14:02:55.254Z,812
2018-09-20T14:03:56.647Z,732
2018-09-20T14:04:58.891Z,688
2018-09-20T14:06:00.351Z,624
2018-09-20T14:07:01.685Z,584
2018-09-20T14:08:03.091Z,628
2018-09-20T14:09:04.477Z,616
2018-09-20T14:10:05.873Z,580